Time;durP1;ratioP1;P1;durP2;ratioP2;P2;SDS_P1;SDS_P2;PMS_P1;PMS_P2;Temp;Humidity;BMP_temperature;BMP_pressure;BME280_temperature;BME280_humidity;BME280_pressure;Samples;Min_cycle;Max_cycle;Signal;HPM_P1;HPM_P2
2021/03/30 00:00:45;;;;;;;36.05;17.83;;;12.00;99.90;;;;;;4794710;29;20058;-85
2021/03/30 00:03:11;;;;;;;32.75;18.20;;;12.00;99.90;;;;;;4795248;29;20074;-85
2021/03/30 00:05:38;;;;;;;31.77;16.83;;;12.00;99.90;;;;;;4810160;29;20145;-85
2021/03/30 00:08:05;;;;;;;37.33;19.42;;;12.00;99.90;;;;;;4795236;29;20574;-84
2021/03/30 00:10:39;;;;;;;40.15;19.88;;;12.00;99.90;;;;;;4795335;29;20104;-85
2021/03/30 00:13:06;;;;;;;38.03;20.20;;;12.00;99.90;;;;;;4794937;29;20459;-85
2021/03/30 00:15:33;;;;;;;36.72;18.15;;;12.00;99.90;;;;;;4795308;29;20515;-84
2021/03/30 00:17:59;;;;;;;33.72;17.08;;;12.00;99.90;;;;;;4795041;29;20054;-85
2021/03/30 00:20:26;;;;;;;34.65;18.88;;;12.00;99.90;;;;;;4795227;29;20046;-84
2021/03/30 00:22:53;;;;;;;33.03;17.58;;;12.00;99.90;;;;;;4794962;29;20066;-85
2021/03/30 00:25:19;;;;;;;37.10;19.55;;;12.00;99.90;;;;;;4794880;29;20435;-85
2021/03/30 00:27:46;;;;;;;31.65;17.58;;;12.00;99.90;;;;;;4794990;29;20133;-84
2021/03/30 00:30:13;;;;;;;31.13;17.17;;;12.00;99.90;;;;;;4802231;29;20251;-85
2021/03/30 00:32:40;;;;;;;32.88;17.25;;;12.00;99.90;;;;;;4794590;29;20504;-85
2021/03/30 00:35:07;;;;;;;26.10;14.95;;;12.00;99.90;;;;;;4795186;29;20131;-85
2021/03/30 00:37:34;;;;;;;32.22;14.77;;;12.00;99.90;;;;;;4794606;29;20055;-86
2021/03/30 00:40:02;;;;;;;29.98;16.50;;;11.90;99.90;;;;;;4794808;29;20058;-85
2021/03/30 00:42:29;;;;;;;27.48;16.10;;;12.00;99.90;;;;;;4794614;29;20057;-85
2021/03/30 00:44:57;;;;;;;25.55;16.92;;;12.00;99.90;;;;;;4794538;29;20061;-86
2021/03/30 00:47:24;;;;;;;27.48;16.35;;;12.00;99.90;;;;;;4794740;29;20071;-85
2021/03/30 00:49:51;;;;;;;24.77;16.88;;;12.00;99.90;;;;;;4794514;29;20058;-85
2021/03/30 00:52:18;;;;;;;31.83;16.13;;;11.90;99.90;;;;;;4794429;29;20126;-85
2021/03/30 00:55:17;;;;;;;29.15;15.63;;;12.00;99.90;;;;;;4782884;29;20054;-85
2021/03/30 00:57:48;;;;;;;23.98;14.85;;;12.00;99.90;;;;;;4795024;29;20089;-85
2021/03/30 01:00:15;;;;;;;24.15;15.70;;;11.90;99.90;;;;;;4794811;29;20054;-85
2021/03/30 01:02:42;;;;;;;21.60;14.05;;;11.90;99.90;;;;;;4794338;29;20062;-85
2021/03/30 01:05:09;;;;;;;27.90;14.82;;;11.90;99.90;;;;;;4794183;29;20141;-85
2021/03/30 01:07:36;;;;;;;25.00;16.35;;;11.90;99.90;;;;;;4794341;29;20573;-85
2021/03/30 01:10:32;;;;;;;25.02;14.73;;;11.90;99.90;;;;;;4794314;29;20068;-85
2021/03/30 01:13:23;;;;;;;29.85;17.88;;;11.90;99.90;;;;;;4794475;29;20078;-85
2021/03/30 01:16:02;;;;;;;23.80;15.13;;;11.90;99.90;;;;;;4793820;29;20077;-87
2021/03/30 01:18:33;;;;;;;30.48;18.90;;;11.80;99.90;;;;;;4808439;29;20423;-85
2021/03/30 01:21:30;;;;;;;32.05;18.10;;;11.80;99.90;;;;;;4794361;29;20054;-85
2021/03/30 01:23:59;;;;;;;;;;;11.70;99.90;;;;;;4793307;29;20494;-85
2021/03/30 01:26:29;;;;;;;26.80;15.25;;;11.70;99.90;;;;;;4793942;29;20388;-85
2021/03/30 01:29:11;;;;;;;27.27;15.90;;;11.70;99.90;;;;;;4794620;29;20082;-85
2021/03/30 01:31:42;;;;;;;33.55;18.77;;;11.70;99.90;;;;;;4808807;29;20154;-85
2021/03/30 01:34:12;;;;;;;30.85;18.98;;;11.70;99.90;;;;;;4794074;29;20054;-85
2021/03/30 01:36:40;;;;;;;27.70;16.17;;;11.60;99.90;;;;;;4793701;29;20058;-84
2021/03/30 01:39:08;;;;;;;25.42;15.55;;;11.60;99.90;;;;;;4794013;29;20054;-84
2021/03/30 01:41:35;;;;;;;30.48;18.02;;;11.60;99.90;;;;;;4793653;29;20541;-85
2021/03/30 01:44:01;;;;;;;33.33;21.77;;;11.60;99.90;;;;;;4793702;29;20479;-85
2021/03/30 01:46:31;;;;;;;32.53;18.88;;;11.60;99.90;;;;;;4793606;29;20054;-85
2021/03/30 01:48:58;;;;;;;35.00;21.02;;;11.60;99.90;;;;;;4793560;29;20123;-85
2021/03/30 01:51:25;;;;;;;29.52;17.75;;;11.50;99.90;;;;;;4793633;29;20085;-85
2021/03/30 01:53:51;;;;;;;29.40;15.85;;;11.50;99.90;;;;;;4793678;29;20060;-84
2021/03/30 01:56:18;;;;;;;30.25;18.48;;;11.40;99.90;;;;;;4793830;29;20058;-85
2021/03/30 01:58:44;;;;;;;32.75;20.27;;;11.40;99.90;;;;;;4793672;29;20146;-85
2021/03/30 02:01:13;;;;;;;31.60;18.42;;;11.30;99.90;;;;;;4793670;29;20145;-84
2021/03/30 02:03:40;;;;;;;30.52;18.38;;;11.30;99.90;;;;;;4793518;29;20149;-85
2021/03/30 02:06:07;;;;;;;29.20;16.55;;;11.20;99.90;;;;;;4793728;29;20055;-85
2021/03/30 02:08:34;;;;;;;25.50;16.17;;;11.10;99.90;;;;;;4795511;29;20058;-85
2021/03/30 02:11:01;;;;;;;25.58;17.48;;;11.10;99.90;;;;;;4797141;29;20083;-85
2021/03/30 02:13:33;;;;;;;34.00;19.05;;;11.10;99.90;;;;;;4797317;29;20051;-85
2021/03/30 02:16:08;;;;;;;32.75;20.88;;;11.00;99.90;;;;;;4797588;29;20058;-85
2021/03/30 02:18:46;;;;;;;37.97;25.20;;;11.00;99.90;;;;;;4827562;29;20410;-85
2021/03/30 02:21:15;;;;;;;38.28;24.02;;;11.00;99.90;;;;;;4796109;29;20054;-85
2021/03/30 02:23:42;;;;;;;35.15;22.13;;;11.00;99.90;;;;;;4797026;29;20137;-85
2021/03/30 02:26:09;;;;;;;35.83;20.65;;;10.90;99.90;;;;;;4796945;29;20483;-85
2021/03/30 02:28:46;;;;;;;36.47;22.63;;;10.90;99.90;;;;;;4797014;29;20054;-85
2021/03/30 02:31:15;;;;;;;33.63;21.80;;;10.90;99.90;;;;;;4811723;29;20521;-85
2021/03/30 02:33:42;;;;;;;31.58;20.38;;;10.80;99.90;;;;;;4796663;29;20058;-84
2021/03/30 02:36:08;;;;;;;38.30;22.75;;;10.80;99.90;;;;;;4796826;29;20061;-85
2021/03/30 02:38:35;;;;;;;40.05;25.95;;;10.70;99.90;;;;;;4796872;29;20058;-85
2021/03/30 02:41:02;;;;;;;33.03;22.10;;;10.70;99.90;;;;;;4797005;29;20046;-85
2021/03/30 02:43:29;;;;;;;30.63;19.70;;;10.70;99.90;;;;;;4796659;29;20110;-85
2021/03/30 02:45:55;;;;;;;32.60;20.00;;;10.70;99.90;;;;;;4796893;29;20082;-85
2021/03/30 02:48:22;;;;;;;30.23;19.58;;;10.60;99.90;;;;;;4796718;29;20058;-84
2021/03/30 02:50:49;;;;;;;32.45;17.98;;;10.60;99.90;;;;;;4796913;29;20054;-84
2021/03/30 02:53:16;;;;;;;26.45;17.63;;;10.70;99.90;;;;;;4796655;29;20050;-85
2021/03/30 02:55:43;;;;;;;32.80;18.67;;;10.60;99.90;;;;;;4796460;29;20089;-85
2021/03/30 02:58:10;;;;;;;30.55;19.55;;;10.60;99.90;;;;;;4796602;29;20137;-85
2021/03/30 03:00:39;;;;;;;29.02;17.15;;;10.60;99.90;;;;;;4796543;29;20146;-84
2021/03/30 03:03:09;;;;;;;26.08;15.68;;;10.60;99.90;;;;;;4796693;29;20050;-85
2021/03/30 03:05:36;;;;;;;25.10;15.65;;;10.60;99.90;;;;;;4796153;29;20054;-85
2021/03/30 03:08:04;;;;;;;24.55;14.52;;;10.60;99.90;;;;;;4796392;29;20058;-84
2021/03/30 03:10:32;;;;;;;24.40;15.25;;;10.60;99.90;;;;;;4795898;29;20054;-85
2021/03/30 03:12:58;;;;;;;25.92;13.95;;;10.50;99.90;;;;;;4811013;29;20054;-86
2021/03/30 03:15:25;;;;;;;29.85;15.80;;;10.50;99.90;;;;;;4796161;29;20410;-84
2021/03/30 03:17:52;;;;;;;23.23;12.98;;;10.60;99.90;;;;;;4795998;29;20055;-84
2021/03/30 03:20:19;;;;;;;17.50;11.25;;;10.40;99.90;;;;;;4810995;29;20157;-84
2021/03/30 03:22:45;;;;;;;20.92;12.57;;;10.40;99.90;;;;;;4796153;29;20051;-84
2021/03/30 03:25:15;;;;;;;19.13;11.93;;;10.40;99.90;;;;;;4795999;29;20478;-84
2021/03/30 03:27:42;;;;;;;18.05;11.70;;;10.40;99.90;;;;;;4796070;29;20054;-84
2021/03/30 03:30:10;;;;;;;21.77;14.50;;;10.40;99.90;;;;;;4795561;29;20058;-84
2021/03/30 03:32:36;;;;;;;20.70;13.27;;;10.30;99.90;;;;;;4795469;29;20133;-84
2021/03/30 03:35:03;;;;;;;17.45;10.35;;;10.30;99.90;;;;;;4795669;29;20057;-85
2021/03/30 03:37:30;;;;;;;18.15;9.60;;;10.30;99.90;;;;;;4795496;29;20510;-84
2021/03/30 03:39:57;;;;;;;15.07;9.60;;;10.30;99.90;;;;;;4795934;29;20144;-84
2021/03/30 03:42:24;;;;;;;19.02;11.23;;;10.20;99.90;;;;;;4795826;29;20093;-84
2021/03/30 03:44:50;;;;;;;15.95;10.13;;;10.20;99.90;;;;;;4795125;29;20065;-87
2021/03/30 03:47:26;;;;;;;18.95;10.60;;;10.20;99.90;;;;;;4795303;29;20099;-85
2021/03/30 03:49:53;;;;;;;20.20;12.35;;;10.10;99.90;;;;;;4810213;29;20065;-85
2021/03/30 03:52:19;;;;;;;20.05;11.30;;;10.10;99.90;;;;;;4795904;29;20153;-85
2021/03/30 03:54:46;;;;;;;16.30;9.70;;;10.10;99.90;;;;;;4780924;29;20414;-85
2021/03/30 03:57:15;;;;;;;13.82;9.18;;;10.10;99.90;;;;;;4795411;29;20074;-85
2021/03/30 03:59:45;;;;;;;16.52;8.98;;;10.00;99.90;;;;;;4825428;29;20062;-84
2021/03/30 04:02:23;;;;;;;12.48;8.05;;;10.00;99.90;;;;;;4795782;29;20051;-85
2021/03/30 04:05:03;;;;;;;13.18;8.18;;;10.00;99.90;;;;;;4794271;29;20119;-84
2021/03/30 04:07:33;;;;;;;11.40;6.70;;;9.90;99.90;;;;;;4794923;29;20050;-88
2021/03/30 04:10:01;;;;;;;9.90;5.93;;;9.90;99.90;;;;;;4795299;29;20086;-85
2021/03/30 04:12:30;;;;;;;12.55;6.13;;;9.90;99.90;;;;;;4795575;29;20050;-85
2021/03/30 04:15:00;;;;;;;15.27;7.85;;;9.90;99.90;;;;;;4795399;29;20058;-85
2021/03/30 04:17:27;;;;;;;12.20;6.13;;;9.90;99.90;;;;;;4795263;29;20146;-85
2021/03/30 04:19:54;;;;;;;18.13;8.25;;;9.80;99.90;;;;;;4795332;29;20592;-85
2021/03/30 04:22:20;;;;;;;10.27;6.20;;;9.80;99.90;;;;;;4795320;29;20054;-84
2021/03/30 04:24:47;;;;;;;12.65;7.20;;;9.70;99.90;;;;;;4795147;29;20078;-85
2021/03/30 04:27:14;;;;;;;13.10;6.28;;;9.70;99.90;;;;;;4795044;29;20115;-85
2021/03/30 04:29:41;;;;;;;14.43;7.07;;;9.70;99.90;;;;;;4794961;29;20050;-85
2021/03/30 04:32:08;;;;;;;9.98;5.90;;;9.70;99.90;;;;;;4794217;29;20058;-85
2021/03/30 04:34:36;;;;;;;11.02;7.07;;;9.70;99.90;;;;;;4809636;29;20089;-85
2021/03/30 04:37:03;;;;;;;14.60;7.93;;;9.70;99.90;;;;;;4795115;29;20559;-86
2021/03/30 04:39:30;;;;;;;14.15;7.05;;;9.70;99.90;;;;;;4794931;29;20471;-85
2021/03/30 04:41:57;;;;;;;12.90;7.10;;;9.70;99.90;;;;;;4794764;29;20149;-84
2021/03/30 04:44:23;;;;;;;12.65;6.53;;;9.70;99.90;;;;;;4793180;29;20047;-85
2021/03/30 04:46:50;;;;;;;12.43;6.05;;;9.70;99.90;;;;;;4809378;29;20058;-85
2021/03/30 04:49:16;;;;;;;10.50;6.03;;;9.70;99.90;;;;;;4794561;29;20570;-84
2021/03/30 04:51:46;;;;;;;11.07;6.15;;;9.70;99.90;;;;;;4809519;29;20073;-85
2021/03/30 04:54:12;;;;;;;11.05;6.50;;;9.70;99.90;;;;;;4793609;29;20156;-84
2021/03/30 04:56:39;;;;;;;14.15;5.55;;;9.70;99.90;;;;;;4809658;29;20061;-84
2021/03/30 04:59:06;;;;;;;13.25;6.75;;;9.70;99.90;;;;;;4794561;29;20448;-85
2021/03/30 05:01:33;;;;;;;12.80;6.55;;;9.70;99.90;;;;;;4823791;29;20058;-85
2021/03/30 05:04:00;;;;;;;9.70;4.93;;;9.80;99.90;;;;;;4812583;29;20046;-85
2021/03/30 05:06:31;;;;;;;11.00;6.47;;;9.80;99.90;;;;;;4813030;29;20111;-85
2021/03/30 05:08:58;;;;;;;11.50;6.82;;;9.80;99.90;;;;;;4812385;29;20062;-85
2021/03/30 05:11:24;;;;;;;10.32;6.38;;;9.80;99.90;;;;;;4812417;29;20062;-85
2021/03/30 05:13:51;;;;;;;11.07;6.72;;;9.80;99.90;;;;;;4812269;29;20126;-86
2021/03/30 05:16:18;;;;;;;15.43;7.53;;;9.90;99.90;;;;;;4812114;29;20110;-85
2021/03/30 05:18:44;;;;;;;14.70;8.15;;;9.80;99.90;;;;;;4812295;29;20145;-85
2021/03/30 05:21:11;;;;;;;14.43;7.43;;;9.90;99.90;;;;;;4811990;29;20058;-85
2021/03/30 05:23:38;;;;;;;13.32;7.40;;;9.90;99.90;;;;;;4812299;29;20065;-85
2021/03/30 05:26:05;;;;;;;15.95;7.00;;;9.90;99.90;;;;;;4812285;29;20077;-87
2021/03/30 05:28:31;;;;;;;12.98;6.25;;;9.90;99.90;;;;;;4812192;29;20050;-86
2021/03/30 05:30:58;;;;;;;12.13;5.82;;;10.00;99.90;;;;;;4812092;29;20114;-84
2021/03/30 05:33:24;;;;;;;13.00;6.82;;;10.00;99.90;;;;;;4811689;29;20502;-85
2021/03/30 05:35:51;;;;;;;14.95;6.28;;;10.10;99.90;;;;;;4811890;29;20502;-84
2021/03/30 05:38:18;;;;;;;17.63;6.85;;;10.10;99.90;;;;;;4811605;29;20107;-85
2021/03/30 05:40:45;;;;;;;13.15;6.60;;;10.20;99.90;;;;;;4811999;29;20058;-84
2021/03/30 05:43:12;;;;;;;10.55;7.30;;;10.30;99.90;;;;;;4810909;29;20494;-85
2021/03/30 05:45:38;;;;;;;14.10;7.70;;;10.40;99.90;;;;;;4792008;29;20134;-85
2021/03/30 05:48:11;;;;;;;11.02;6.47;;;10.40;99.90;;;;;;4790605;29;20572;-85
2021/03/30 05:50:37;;;;;;;13.60;6.40;;;10.50;99.90;;;;;;4793307;29;20051;-85
2021/03/30 05:53:08;;;;;;;15.18;6.43;;;10.60;99.90;;;;;;4808646;29;20058;-85
2021/03/30 05:55:37;;;;;;;12.75;6.15;;;10.70;99.90;;;;;;4793449;29;20061;-85
2021/03/30 05:58:05;;;;;;;15.55;7.47;;;10.80;99.90;;;;;;4793588;29;20081;-85
2021/03/30 06:00:41;;;;;;;12.40;6.40;;;11.00;99.90;;;;;;4790486;29;20062;-84
2021/03/30 06:03:11;;;;;;;14.57;6.63;;;11.00;99.90;;;;;;4775911;29;20051;-86
2021/03/30 06:05:38;;;;;;;15.80;7.43;;;11.30;99.90;;;;;;4793567;29;20534;-86
2021/03/30 06:08:05;;;;;;;11.98;6.30;;;11.70;99.90;;;;;;4793707;29;20100;-85
2021/03/30 06:10:33;;;;;;;11.98;7.93;;;12.30;99.90;;;;;;4793759;29;20059;-85
2021/03/30 06:13:00;;;;;;;14.98;6.47;;;12.70;99.90;;;;;;4793474;29;20058;-85
2021/03/30 06:15:31;;;;;;;11.18;6.22;;;13.20;99.90;;;;;;4793616;29;20502;-85
2021/03/30 06:17:59;;;;;;;10.30;6.75;;;13.60;99.90;;;;;;4778564;29;20058;-85
2021/03/30 06:20:34;;;;;;;11.63;6.55;;;14.10;99.90;;;;;;4793281;29;20407;-85
2021/03/30 06:23:05;;;;;;;10.80;6.13;;;14.60;99.90;;;;;;4792704;29;20529;-85
2021/03/30 06:25:45;;;;;;;12.40;5.72;;;14.90;99.90;;;;;;4792812;29;20355;-87
2021/03/30 06:28:16;;;;;;;11.38;5.78;;;15.30;99.90;;;;;;4793279;29;20071;-86
2021/03/30 06:31:15;;;;;;;12.45;5.93;;;15.30;99.90;;;;;;4807656;29;20059;-86
2021/03/30 06:33:45;;;;;;;11.50;5.97;;;15.40;99.90;;;;;;4794106;29;20054;-86
2021/03/30 06:36:19;;;;;;;10.52;5.72;;;15.40;99.90;;;;;;4810543;29;20046;-86
2021/03/30 06:38:49;;;;;;;11.38;5.72;;;15.50;99.90;;;;;;4804626;29;20393;-85
2021/03/30 06:41:46;;;;;;;13.15;5.15;;;15.70;99.90;;;;;;4775424;29;20419;-86
2021/03/30 06:44:30;;;;;;;9.30;5.10;;;16.00;99.90;;;;;;4789674;29;20047;-86
2021/03/30 06:47:14;;;;;;;10.70;5.20;;;16.30;99.90;;;;;;4801869;29;20049;-87
2021/03/30 06:50:03;;;;;;;12.00;5.30;;;16.60;99.90;;;;;;4781366;29;20495;-89
2021/03/30 06:52:37;;;;;;;9.60;4.82;;;16.80;99.90;;;;;;4804237;29;20074;-87
2021/03/30 06:55:27;;;;;;;10.95;5.55;;;17.10;99.90;;;;;;4769815;29;20419;-87
2021/03/30 06:58:01;;;;;;;11.10;5.85;;;17.20;99.90;;;;;;4771953;29;20065;-86
2021/03/30 07:00:33;;;;;;;13.18;5.68;;;17.50;99.90;;;;;;4766591;29;20131;-87
2021/03/30 07:03:05;;;;;;;9.95;5.38;;;17.60;99.90;;;;;;4763764;29;20055;-86
2021/03/30 07:05:39;;;;;;;10.80;4.75;;;17.80;99.90;;;;;;4763569;29;20499;-86
2021/03/30 07:08:09;;;;;;;14.38;5.75;;;18.00;99.90;;;;;;4778921;29;20054;-88
2021/03/30 07:10:40;;;;;;;10.20;5.40;;;18.30;99.90;;;;;;4794557;29;20129;-87
2021/03/30 07:13:08;;;;;;;10.25;5.07;;;18.50;99.90;;;;;;4785418;29;20149;-87
2021/03/30 07:15:34;;;;;;;10.32;5.70;;;18.80;99.90;;;;;;4799501;29;20062;-86
2021/03/30 07:18:21;;;;;;;14.02;5.65;;;18.90;99.90;;;;;;4796589;29;20076;-85
2021/03/30 07:21:00;;;;;;;9.77;6.13;;;19.10;99.80;;;;;;4808202;29;20486;-84
2021/03/30 07:23:31;;;;;;;10.27;5.88;;;19.10;98.00;;;;;;4803500;29;20564;-86
2021/03/30 07:26:10;;;;;;;10.38;5.28;;;19.20;97.20;;;;;;4770598;29;20119;-86
2021/03/30 07:28:46;;;;;;;10.77;5.85;;;19.30;96.70;;;;;;4811254;29;20051;-87
2021/03/30 07:31:27;;;;;;;11.75;5.82;;;19.40;95.50;;;;;;4828879;29;20058;-87
2021/03/30 07:34:16;;;;;;;12.80;5.97;;;19.60;96.70;;;;;;4796607;29;20058;-86
2021/03/30 07:36:54;;;;;;;11.73;6.57;;;19.90;96.70;;;;;;4796497;29;20060;-85
2021/03/30 07:39:21;;;;;;;9.50;5.35;;;20.10;95.20;;;;;;4796315;29;20062;-84
2021/03/30 07:41:48;;;;;;;12.43;5.88;;;20.30;96.00;;;;;;4784848;29;20062;-85
2021/03/30 07:44:16;;;;;;;10.90;6.05;;;20.70;94.70;;;;;;4763521;29;20079;-85
2021/03/30 07:46:42;;;;;;;11.55;6.53;;;20.90;93.60;;;;;;4763502;29;20078;-85
2021/03/30 07:49:10;;;;;;;11.00;6.18;;;21.10;93.60;;;;;;4791614;29;20513;-84
2021/03/30 07:51:44;;;;;;;9.98;4.78;;;21.30;92.70;;;;;;4796643;29;20046;-85
2021/03/30 07:54:29;;;;;;;12.52;5.95;;;21.60;91.20;;;;;;4788981;29;20082;-84
2021/03/30 07:56:56;;;;;;;10.70;5.40;;;21.70;87.80;;;;;;4794813;29;20095;-85
2021/03/30 07:59:42;;;;;;;13.50;6.70;;;21.90;86.40;;;;;;4780216;29;20552;-85
2021/03/30 08:02:10;;;;;;;12.05;6.03;;;22.00;82.70;;;;;;4799060;29;20047;-84
2021/03/30 08:04:37;;;;;;;13.18;6.13;;;22.00;82.50;;;;;;4794341;29;20046;-84
2021/03/30 08:07:03;;;;;;;10.77;5.60;;;22.20;81.90;;;;;;4779120;29;20054;-83
2021/03/30 08:09:33;;;;;;;9.80;6.13;;;22.30;80.00;;;;;;4795958;29;20054;-84
2021/03/30 08:12:00;;;;;;;10.02;6.30;;;22.30;79.30;;;;;;4795565;29;20058;-85
2021/03/30 08:14:33;;;;;;;8.85;5.68;;;22.50;77.90;;;;;;4795425;29;20141;-86
2021/03/30 08:17:03;;;;;;;15.88;5.57;;;22.60;78.50;;;;;;4825193;29;20525;-86
2021/03/30 08:19:30;;;;;;;10.43;5.70;;;22.60;74.10;;;;;;4795089;29;20055;-85
2021/03/30 08:22:07;;;;;;;9.00;5.22;;;22.80;77.20;;;;;;4794879;29;20051;-87
2021/03/30 08:24:34;;;;;;;15.77;6.20;;;22.80;73.80;;;;;;4795284;29;20470;-85
2021/03/30 08:27:01;;;;;;;9.32;5.95;;;22.80;73.10;;;;;;4810260;29;20054;-85
2021/03/30 08:29:36;;;;;;;8.25;5.38;;;23.00;74.20;;;;;;4793356;29;20093;-87
2021/03/30 08:32:05;;;;;;;11.30;5.75;;;22.90;74.30;;;;;;4794815;29;20053;-87
2021/03/30 08:34:42;;;;;;;10.05;5.82;;;22.90;73.20;;;;;;4774667;29;20491;-86
2021/03/30 08:37:12;;;;;;;9.00;6.22;;;23.00;72.20;;;;;;4792235;29;20055;-87
2021/03/30 08:39:40;;;;;;;9.65;5.40;;;23.20;73.80;;;;;;4783259;29;20051;-86
2021/03/30 08:42:12;;;;;;;10.80;5.75;;;23.30;71.90;;;;;;4785370;29;20047;-87
2021/03/30 08:45:27;;;;;;;9.52;5.63;;;23.20;71.40;;;;;;4810644;29;20058;-92
2021/03/30 08:47:56;;;;;;;11.85;6.25;;;23.30;71.70;;;;;;4770333;29;20058;-91
2021/03/30 08:50:27;;;;;;;11.77;5.55;;;23.20;71.70;;;;;;4772577;29;20534;-89
2021/03/30 08:52:55;;;;;;;13.38;6.22;;;23.00;69.70;;;;;;4772840;29;20051;-90
2021/03/30 08:55:42;;;;;;;10.88;6.65;;;22.80;70.90;;;;;;4762644;29;20062;-90
2021/03/30 08:58:10;;;;;;;11.90;6.30;;;22.90;72.60;;;;;;4766460;29;20152;-88
2021/03/30 09:00:37;;;;;;;11.48;6.47;;;23.10;72.70;;;;;;4761775;29;20054;-88
2021/03/30 09:03:05;;;;;;;11.65;6.18;;;23.30;72.70;;;;;;4745778;29;20122;-87
2021/03/30 09:05:37;;;;;;;12.10;6.03;;;23.50;70.70;;;;;;4775933;29;20049;-85
2021/03/30 09:08:11;;;;;;;10.07;5.85;;;23.50;68.50;;;;;;4760370;29;20063;-86
2021/03/30 09:10:38;;;;;;;11.85;6.97;;;23.70;68.90;;;;;;4745497;29;20051;-85
2021/03/30 09:13:14;;;;;;;11.85;6.75;;;23.70;68.80;;;;;;4744984;29;20366;-85
2021/03/30 09:15:43;;;;;;;11.68;6.65;;;23.80;69.20;;;;;;4765419;29;20058;-85
2021/03/30 09:18:11;;;;;;;13.73;6.72;;;23.80;68.20;;;;;;4749379;29;20046;-85
2021/03/30 09:20:38;;;;;;;15.32;7.18;;;24.00;67.80;;;;;;4792169;29;20061;-85
2021/03/30 09:23:18;;;;;;;13.73;6.28;;;24.10;67.70;;;;;;4782940;29;20078;-85
2021/03/30 09:25:51;;;;;;;11.63;6.53;;;24.10;67.20;;;;;;4790660;29;20055;-86
2021/03/30 09:28:23;;;;;;;13.50;6.28;;;24.10;67.10;;;;;;4799092;29;20088;-87
2021/03/30 09:30:50;;;;;;;12.73;7.50;;;24.30;66.70;;;;;;4803548;29;20054;-86
2021/03/30 09:33:18;;;;;;;14.32;7.25;;;24.30;67.60;;;;;;4811116;29;20077;-86
2021/03/30 09:35:46;;;;;;;13.35;8.15;;;24.40;67.00;;;;;;4788398;29;20104;-88
2021/03/30 09:38:12;;;;;;;12.27;7.00;;;24.40;66.60;;;;;;4776400;29;20145;-85
2021/03/30 09:40:42;;;;;;;12.90;7.88;;;24.50;65.80;;;;;;4806310;29;20149;-87
2021/03/30 09:43:14;;;;;;;11.15;7.32;;;24.50;65.60;;;;;;4796444;29;20457;-84
2021/03/30 09:45:42;;;;;;;15.73;7.30;;;24.50;65.60;;;;;;4776258;29;20066;-85
2021/03/30 09:48:11;;;;;;;11.95;8.00;;;24.50;65.20;;;;;;4793472;29;20058;-85
2021/03/30 09:50:45;;;;;;;16.52;7.95;;;24.50;65.70;;;;;;4787400;29;20073;-85
2021/03/30 09:53:22;;;;;;;14.95;8.15;;;24.60;65.90;;;;;;4813643;29;20102;-85
2021/03/30 09:55:49;;;;;;;10.43;8.07;;;24.50;63.30;;;;;;4811029;29;20524;-84
2021/03/30 09:58:21;;;;;;;11.30;7.53;;;24.40;64.60;;;;;;4812300;29;20077;-85
2021/03/30 10:00:53;;;;;;;14.07;8.07;;;24.40;63.50;;;;;;4792129;29;20054;-84
2021/03/30 10:03:21;;;;;;;11.90;8.30;;;24.40;65.00;;;;;;4790861;29;20054;-83
2021/03/30 10:05:48;;;;;;;15.45;8.70;;;24.40;64.60;;;;;;4763246;29;20047;-84
2021/03/30 10:08:21;;;;;;;17.77;8.45;;;24.40;64.90;;;;;;4778331;29;20552;-85
2021/03/30 10:10:54;;;;;;;11.52;8.73;;;24.40;65.30;;;;;;4779100;29;20058;-86
2021/03/30 10:13:33;;;;;;;15.45;9.38;;;24.30;64.30;;;;;;4777548;29;20459;-85
2021/03/30 10:16:07;;;;;;;18.20;9.57;;;24.20;64.90;;;;;;4793075;29;20130;-84
2021/03/30 10:18:35;;;;;;;14.45;8.77;;;24.10;65.50;;;;;;4778999;29;20066;-84
2021/03/30 10:21:12;;;;;;;14.50;9.35;;;24.10;64.30;;;;;;4775905;29;20059;-83
2021/03/30 10:23:49;;;;;;;18.05;10.23;;;24.10;65.30;;;;;;4775612;29;20051;-84
2021/03/30 10:26:25;;;;;;;12.30;9.27;;;24.00;65.10;;;;;;4791885;29;20055;-83
2021/03/30 10:28:53;;;;;;;11.75;9.40;;;24.10;65.50;;;;;;4793041;29;20065;-84
2021/03/30 10:34:32;;;;;;;12.18;8.93;;;24.10;66.00;;;;;;4811524;29;20519;-84
2021/03/30 10:37:07;;;;;;;12.20;8.48;;;24.20;66.30;;;;;;4816615;29;20055;-84
2021/03/30 10:39:38;;;;;;;12.18;9.20;;;24.20;66.70;;;;;;4778979;29;20062;-83
2021/03/30 10:42:08;;;;;;;15.05;8.30;;;24.20;67.60;;;;;;4782103;29;20054;-84
2021/03/30 10:44:39;;;;;;;13.48;9.15;;;24.20;66.70;;;;;;4795095;29;20062;-84
2021/03/30 10:47:18;;;;;;;11.82;9.35;;;24.30;67.30;;;;;;4796190;29;20050;-84
2021/03/30 10:49:47;;;;;;;13.93;9.35;;;24.30;66.10;;;;;;4810760;29;20058;-84
2021/03/30 10:52:25;;;;;;;12.85;8.63;;;24.30;66.60;;;;;;4796535;29;20062;-83
2021/03/30 10:54:54;;;;;;;10.73;8.23;;;24.20;66.60;;;;;;4794654;29;20137;-84
2021/03/30 10:57:22;;;;;;;13.02;9.50;;;24.10;67.60;;;;;;4796301;29;20046;-85
2021/03/30 10:59:49;;;;;;;12.23;8.68;;;24.10;67.80;;;;;;4778716;29;20081;-85
2021/03/30 11:02:17;;;;;;;12.07;7.72;;;24.10;66.20;;;;;;4793426;29;20055;-83
2021/03/30 11:04:44;;;;;;;13.93;8.43;;;24.10;68.30;;;;;;4778856;29;20150;-86
2021/03/30 11:07:10;;;;;;;12.05;8.63;;;24.10;67.80;;;;;;4778367;29;20516;-85
2021/03/30 11:09:37;;;;;;;14.65;9.48;;;24.00;67.10;;;;;;4778314;29;20146;-85
2021/03/30 11:12:05;;;;;;;20.35;8.80;;;24.00;66.10;;;;;;4762834;29;20055;-84
2021/03/30 11:14:32;;;;;;;15.85;9.18;;;23.90;68.90;;;;;;4792238;29;20055;-84
2021/03/30 11:16:58;;;;;;;19.55;9.65;;;23.90;66.80;;;;;;4778942;29;20058;-83
2021/03/30 11:19:26;;;;;;;14.32;10.10;;;23.80;68.10;;;;;;4778332;29;20051;-85
2021/03/30 11:21:53;;;;;;;13.38;8.18;;;23.70;67.30;;;;;;4778259;29;20051;-84
2021/03/30 11:24:22;;;;;;;13.52;8.80;;;23.60;68.30;;;;;;4778674;29;20062;-84
2021/03/30 11:26:54;;;;;;;13.55;7.78;;;23.50;69.00;;;;;;4778695;29;20556;-84
2021/03/30 11:39:38;;;;;;;13.95;7.45;;;23.30;71.70;;;;;;4827675;29;20140;-84
2021/03/30 11:42:05;;;;;;;16.80;8.50;;;23.30;71.10;;;;;;4795643;29;20054;-86
2021/03/30 11:44:32;;;;;;;11.50;7.97;;;23.30;71.40;;;;;;4795864;29;20050;-86
2021/03/30 11:46:59;;;;;;;13.88;7.93;;;23.30;70.10;;;;;;4805417;29;20478;-86
2021/03/30 11:49:27;;;;;;;11.88;8.02;;;23.20;71.10;;;;;;4780697;29;20507;-87
2021/03/30 11:51:54;;;;;;;11.38;8.20;;;23.20;70.20;;;;;;4806336;29;20053;-87
2021/03/30 11:54:20;;;;;;;12.40;7.10;;;23.20;70.90;;;;;;4795377;29;20087;-86
2021/03/30 11:56:47;;;;;;;12.27;6.82;;;23.10;70.80;;;;;;4792320;29;20153;-86
2021/03/30 11:59:14;;;;;;;11.85;6.90;;;23.10;71.50;;;;;;4762766;29;20063;-86
2021/03/30 12:01:40;;;;;;;25.88;8.55;;;23.00;72.30;;;;;;4777841;29;20051;-87
2021/03/30 12:04:07;;;;;;;10.30;7.60;;;23.00;71.20;;;;;;4777682;29;20043;-88
2021/03/30 12:06:34;;;;;;;12.00;7.13;;;22.90;70.90;;;;;;4773184;29;20517;-87
2021/03/30 12:09:01;;;;;;;11.57;7.68;;;22.90;70.60;;;;;;4795420;29;20140;-86
2021/03/30 12:11:31;;;;;;;12.98;7.65;;;22.70;72.30;;;;;;4795234;29;20141;-86
2021/03/30 12:13:58;;;;;;;12.68;7.78;;;22.80;72.60;;;;;;4780697;29;20146;-86
2021/03/30 12:16:24;;;;;;;8.75;6.03;;;22.80;72.80;;;;;;4795286;29;20546;-88
2021/03/30 12:18:51;;;;;;;11.90;7.22;;;22.70;72.80;;;;;;4795156;29;20058;-87
2021/03/30 12:21:23;;;;;;;14.57;8.23;;;22.70;73.00;;;;;;4781553;29;20146;-87
2021/03/30 12:23:50;;;;;;;11.27;5.97;;;22.60;72.90;;;;;;4800073;29;20046;-87
2021/03/30 12:26:16;;;;;;;10.63;6.57;;;22.60;72.60;;;;;;4802990;29;20079;-87
2021/03/30 12:28:43;;;;;;;11.45;6.60;;;22.50;74.70;;;;;;4792488;29;20495;-87
2021/03/30 12:31:22;;;;;;;11.55;6.38;;;22.50;74.30;;;;;;4811094;29;20065;-86
2021/03/30 12:33:49;;;;;;;13.73;6.80;;;22.50;74.30;;;;;;4794895;29;20055;-86
2021/03/30 12:36:16;;;;;;;10.90;6.07;;;22.50;74.80;;;;;;4777219;29;20426;-87
2021/03/30 12:38:42;;;;;;;10.38;5.85;;;22.50;74.70;;;;;;4779824;29;20046;-86
2021/03/30 12:41:09;;;;;;;10.07;6.40;;;22.40;74.80;;;;;;4794895;29;20050;-86
2021/03/30 12:43:36;;;;;;;11.50;6.57;;;22.40;74.80;;;;;;4809717;29;20509;-86
2021/03/30 12:46:02;;;;;;;9.75;5.68;;;22.40;75.20;;;;;;4813049;29;20056;-87
2021/03/30 12:48:29;;;;;;;9.85;4.78;;;22.40;75.20;;;;;;4812624;29;20049;-87
2021/03/30 12:50:58;;;;;;;14.52;6.28;;;22.30;74.90;;;;;;4795604;29;20069;-84
2021/03/30 12:53:25;;;;;;;9.35;6.05;;;22.40;75.60;;;;;;4794630;29;20069;-85
2021/03/30 12:55:54;;;;;;;12.43;6.97;;;22.30;76.20;;;;;;4802168;29;20145;-85
2021/03/30 12:58:21;;;;;;;8.68;5.65;;;22.30;75.00;;;;;;4812060;29;20101;-87
2021/03/30 13:00:48;;;;;;;10.85;5.72;;;22.30;75.30;;;;;;4811884;29;20053;-84
2021/03/30 13:03:27;;;;;;;9.63;6.60;;;22.30;76.10;;;;;;4798729;29;20055;-86